Main page
METAR-TAF:

METAR-TAF

Airports :

Easterwood Airport

College Station, Texas, United States

latitude: 30-34-56N, longitude: 096-21-42W, elevation: 318 ft

Current weather observation

The report was made 41 minutes ago, at 12:53 UTC
Calm wind
Temperature 30°F
Humidity 93%
Pressure 30.34 in. Hg
Visibility: 10 miles
Clear sky

METAR: KCLL 151253Z AUTO 00000KT 10SM CLR M01/M02 A3034 RMK AO2 SLP274 T10061017

Time: 07:34 (13:34 UTC)

Forecast

The report was made 2 hours and 14 minutes ago, at 11:20 UTC
Forecast valid from 15 at 12 UTC to 16 at 12 UTC
Wind 7 mph from the South
Visibility: 6 miles
Clear sky

TAF: KCLL 151120Z 1512/1612 19006KT P6SM SKC

Weather observations and forecasts of more than 4000 airports (METAR and TAF reports).

The available stations are represented by yellow and red dots on the map.

Hover mouse over dot to see the name of the station.

Then click to see weather observations and forecasts.

To change the map : click on the green buttons with a black cross to zoom in, on the green button with a dash to zoom out, or on the green arrows for adjacent maps.


METAR-TAF: